Time;durP1;ratioP1;P1;durP2;ratioP2;P2;SDS_P1;SDS_P2;PMS_P1;PMS_P2;Temp;Humidity;BMP_temperature;BMP_pressure;BME280_temperature;BME280_humidity;BME280_pressure;Samples;Min_cycle;Max_cycle;Signal;HPM_P1;HPM_P2
2023/10/20 00:01:34;;;;;;;5.17;3.13;;;;;;;-145.14;100.00;70583.66;4935739;28;20212;-70
2023/10/20 00:04:03;;;;;;;4.33;2.50;;;;;;;-145.14;100.00;70583.66;4945235;28;20830;-70
2023/10/20 00:06:29;;;;;;;4.00;2.47;;;;;;;-145.14;100.00;70583.66;4941888;28;20201;-70
2023/10/20 00:08:55;;;;;;;4.20;2.40;;;;;;;-145.14;100.00;70583.66;4939316;28;21082;-70
2023/10/20 00:11:20;;;;;;;3.50;2.07;;;;;;;-145.14;100.00;70583.66;4934555;28;20451;-70
2023/10/20 00:13:45;;;;;;;3.93;2.20;;;;;;;-145.14;100.00;70583.66;4938847;28;20716;-70
2023/10/20 00:16:11;;;;;;;3.77;2.00;;;;;;;-145.14;100.00;70583.66;4939146;28;20214;-70
2023/10/20 00:18:36;;;;;;;3.43;2.00;;;;;;;-145.14;100.00;70583.66;4942823;28;20215;-70
2023/10/20 00:21:02;;;;;;;3.43;2.00;;;;;;;-145.14;100.00;70583.66;4942793;28;20772;-70
2023/10/20 00:23:29;;;;;;;4.40;2.50;;;;;;;-145.14;100.00;70583.66;4941002;28;20278;-70
2023/10/20 00:25:54;;;;;;;3.37;2.07;;;;;;;-145.14;100.00;70583.66;4938498;28;20439;-71
2023/10/20 00:28:20;;;;;;;3.90;2.00;;;;;;;-145.14;100.00;70583.66;4942096;28;20290;-71
2023/10/20 00:30:45;;;;;;;3.50;2.00;;;;;;;-145.14;100.00;70583.66;4942178;28;20666;-69
2023/10/20 00:33:10;;;;;;;3.20;1.90;;;;;;;-145.14;100.00;70583.66;4941422;28;20347;-69
2023/10/20 00:35:36;;;;;;;4.37;2.37;;;;;;;-145.14;100.00;70583.66;5051336;23;20312;-71
2023/10/20 00:38:02;;;;;;;4.30;2.33;;;;;;;-145.14;100.00;70583.66;5001734;28;20603;-70
2023/10/20 00:40:27;;;;;;;4.10;2.23;;;;;;;-145.14;100.00;70583.66;5016611;28;20442;-70
2023/10/20 00:42:53;;;;;;;3.30;2.03;;;;;;;-145.14;100.00;70583.66;5016756;28;20566;-71
2023/10/20 00:45:19;;;;;;;3.43;1.97;;;;;;;-145.14;100.00;70583.66;5022200;28;20202;-71
2023/10/20 00:47:44;;;;;;;3.83;2.27;;;;;;;-145.14;100.00;70583.66;5022527;28;20182;-71
2023/10/20 00:50:14;;;;;;;3.60;1.80;;;;;;;-145.14;100.00;70583.66;5015659;28;20208;-71
2023/10/20 00:52:50;;;;;;;3.70;2.00;;;;;;;-145.14;100.00;70583.66;5021234;28;20181;-71
2023/10/20 00:55:16;;;;;;;3.40;2.20;;;;;;;-145.14;100.00;70583.66;5019480;28;20561;-71
2023/10/20 00:57:45;;;;;;;3.23;1.97;;;;;;;-145.14;100.00;70583.66;5019528;28;20547;-71
2023/10/20 01:00:13;;;;;;;3.87;2.30;;;;;;;-145.14;100.00;70583.66;5013521;28;20212;-71
2023/10/20 01:02:39;;;;;;;3.30;1.73;;;;;;;-145.14;100.00;70583.66;5021241;28;20950;-71
2023/10/20 01:05:14;;;;;;;3.50;1.80;;;;;;;-145.14;100.00;70583.66;5017406;28;20443;-71
2023/10/20 01:07:40;;;;;;;3.63;1.90;;;;;;;-145.14;100.00;70583.66;5014330;28;20219;-71
2023/10/20 01:10:06;;;;;;;3.43;2.10;;;;;;;-145.14;100.00;70583.66;5020575;28;20490;-71
2023/10/20 01:12:35;;;;;;;3.33;1.70;;;;;;;-145.14;100.00;70583.66;5029409;28;20185;-71
2023/10/20 01:15:04;;;;;;;3.10;1.90;;;;;;;-145.14;100.00;70583.66;5021320;28;20475;-71
2023/10/20 01:17:30;;;;;;;3.37;1.87;;;;;;;-145.14;100.00;70583.66;5016258;28;20452;-71
2023/10/20 01:20:00;;;;;;;4.50;2.57;;;;;;;-145.14;100.00;70583.66;5017086;28;20470;-70
2023/10/20 01:22:26;;;;;;;4.37;2.60;;;;;;;-145.14;100.00;70583.66;5024670;28;20443;-71
2023/10/20 01:24:51;;;;;;;4.60;2.87;;;;;;;-145.14;100.00;70583.66;5017317;28;20450;-72
2023/10/20 01:27:17;;;;;;;4.57;3.00;;;;;;;-145.14;100.00;70583.66;5021689;28;20653;-71
2023/10/20 01:29:42;;;;;;;6.17;4.10;;;;;;;-145.14;100.00;70583.66;5021728;28;20529;-71
2023/10/20 01:32:10;;;;;;;6.13;4.20;;;;;;;-145.14;100.00;70583.66;5016728;28;20193;-71
2023/10/20 01:34:37;;;;;;;6.63;4.20;;;;;;;-145.14;100.00;70583.66;5016478;28;20288;-72
2023/10/20 01:37:03;;;;;;;5.93;3.90;;;;;;;-145.14;100.00;70583.66;5020603;28;21243;-71
2023/10/20 01:39:29;;;;;;;6.73;4.87;;;;;;;-145.14;100.00;70583.66;5028088;28;20567;-71
2023/10/20 01:41:55;;;;;;;6.63;4.60;;;;;;;-145.14;100.00;70583.66;5023067;28;20463;-71
2023/10/20 01:44:22;;;;;;;7.20;4.77;;;;;;;-145.14;100.00;70583.66;5019310;28;20576;-71
2023/10/20 01:46:51;;;;;;;6.47;4.20;;;;;;;-145.14;100.00;70583.66;5022138;28;20477;-71
2023/10/20 01:49:19;;;;;;;8.50;5.77;;;;;;;-145.14;100.00;70583.66;5019961;28;20474;-71
2023/10/20 01:51:45;;;;;;;7.97;5.60;;;;;;;-145.14;100.00;70583.66;5022385;28;20440;-71
2023/10/20 01:54:12;;;;;;;8.83;5.57;;;;;;;-145.14;100.00;70583.66;5022250;28;20467;-71
2023/10/20 01:56:38;;;;;;;6.97;5.37;;;;;;;-145.14;100.00;70583.66;5022171;28;20474;-71
2023/10/20 01:59:04;;;;;;;8.70;6.07;;;;;;;-145.14;100.00;70583.66;5027398;28;20557;-71
2023/10/20 02:01:30;;;;;;;9.50;6.77;;;;;;;-145.14;100.00;70583.66;5027707;28;20530;-71
2023/10/20 02:03:55;;;;;;;10.13;6.70;;;;;;;-145.14;100.00;70583.66;5019856;28;20616;-71
2023/10/20 02:06:21;;;;;;;9.00;6.20;;;;;;;-145.14;100.00;70583.66;5017291;28;20530;-71
2023/10/20 02:08:48;;;;;;;8.83;6.17;;;;;;;-145.14;100.00;70583.66;5023275;28;20470;-71
2023/10/20 02:11:15;;;;;;;10.63;7.20;;;;;;;-145.14;100.00;70583.66;5023784;28;20283;-71
2023/10/20 02:13:44;;;;;;;9.70;6.63;;;;;;;-145.14;100.00;70583.66;5026588;28;20443;-71
2023/10/20 02:16:10;;;;;;;8.70;6.90;;;;;;;-145.14;100.00;70583.66;5026811;28;20498;-71
2023/10/20 02:18:36;;;;;;;9.40;6.33;;;;;;;-145.14;100.00;70583.66;5025417;28;20542;-71
2023/10/20 02:21:05;;;;;;;10.53;6.80;;;;;;;-145.14;100.00;70583.66;5021571;28;20558;-70
2023/10/20 02:23:34;;;;;;;10.67;7.03;;;;;;;-145.14;100.00;70583.66;5029624;28;20850;-71
2023/10/20 02:26:02;;;;;;;9.77;6.53;;;;;;;-145.14;100.00;70583.66;5027727;28;20445;-71
2023/10/20 02:28:34;;;;;;;8.87;6.30;;;;;;;-145.14;100.00;70583.66;5026700;28;20454;-70
2023/10/20 02:31:01;;;;;;;7.90;5.50;;;;;;;-145.14;100.00;70583.66;5023010;28;20582;-71
2023/10/20 02:33:27;;;;;;;10.20;5.80;;;;;;;-145.14;100.00;70583.66;5021869;28;21287;-71
2023/10/20 02:35:56;;;;;;;7.80;5.40;;;;;;;-145.14;100.00;70583.66;5019758;28;20619;-70
2023/10/20 02:38:22;;;;;;;7.93;5.60;;;;;;;-145.14;100.00;70583.66;5026378;28;20955;-71
2023/10/20 02:40:52;;;;;;;7.80;5.03;;;;;;;-145.14;100.00;70583.66;5027542;28;20451;-71
2023/10/20 02:43:18;;;;;;;8.90;5.10;;;;;;;-145.14;100.00;70583.66;5029301;28;20225;-71
2023/10/20 02:45:51;;;;;;;6.30;4.67;;;;;;;-145.14;100.00;70583.66;5012682;28;20516;-71
2023/10/20 02:48:16;;;;;;;6.70;4.90;;;;;;;-145.14;100.00;70583.66;5024184;28;20212;-71
2023/10/20 02:50:42;;;;;;;6.07;3.80;;;;;;;-145.14;100.00;70583.66;5022522;28;20861;-71
2023/10/20 02:53:08;;;;;;;7.13;4.00;;;;;;;-145.14;100.00;70583.66;5028539;28;20203;-71
2023/10/20 02:55:33;;;;;;;5.33;3.63;;;;;;;-145.14;100.00;70583.66;5024661;28;20261;-71
2023/10/20 02:58:00;;;;;;;5.90;3.60;;;;;;;-145.14;100.00;70583.66;5024456;28;20431;-71
2023/10/20 03:00:25;;;;;;;5.80;3.30;;;;;;;-145.14;100.00;70583.66;5020524;28;20189;-71
2023/10/20 03:02:53;;;;;;;6.07;3.43;;;;;;;-145.14;100.00;70583.66;5020735;28;20446;-71
2023/10/20 03:05:20;;;;;;;5.83;3.80;;;;;;;-145.14;100.00;70583.66;5021633;28;20183;-71
2023/10/20 03:07:49;;;;;;;5.17;3.13;;;;;;;-145.14;100.00;70583.66;5024420;28;20451;-71
2023/10/20 03:10:15;;;;;;;5.00;2.90;;;;;;;-145.14;100.00;70583.66;5018927;28;21154;-71
2023/10/20 03:12:40;;;;;;;5.40;3.10;;;;;;;-145.14;100.00;70583.66;5022268;28;20444;-71
2023/10/20 03:15:08;;;;;;;5.47;3.00;;;;;;;-145.14;100.00;70583.66;5021537;28;20235;-71
2023/10/20 03:17:33;;;;;;;5.87;3.33;;;;;;;-145.14;100.00;70583.66;5020591;28;21441;-71
2023/10/20 03:19:58;;;;;;;4.97;3.03;;;;;;;-145.14;100.00;70583.66;5019526;28;20467;-71
2023/10/20 03:22:25;;;;;;;4.77;2.93;;;;;;;-145.14;100.00;70583.66;5018016;28;20204;-70
2023/10/20 03:24:51;;;;;;;4.23;2.53;;;;;;;-145.14;100.00;70583.66;5025886;28;20177;-71
2023/10/20 03:27:18;;;;;;;4.10;2.80;;;;;;;-145.14;100.00;70583.66;5027282;28;20796;-71
2023/10/20 03:29:44;;;;;;;4.23;2.93;;;;;;;-145.14;100.00;70583.66;5022651;28;21190;-71
2023/10/20 03:32:10;;;;;;;4.83;3.23;;;;;;;-145.14;100.00;70583.66;5019525;28;20472;-71
2023/10/20 03:34:35;;;;;;;4.07;2.60;;;;;;;-145.14;100.00;70583.66;5026523;28;20535;-71
2023/10/20 03:37:02;;;;;;;4.37;2.63;;;;;;;-145.14;100.00;70583.66;5034997;28;20561;-71
2023/10/20 03:39:27;;;;;;;4.10;2.30;;;;;;;-145.14;100.00;70583.66;5020881;28;20255;-71
2023/10/20 03:41:53;;;;;;;5.17;2.77;;;;;;;-145.14;100.00;70583.66;5022853;28;20929;-71
2023/10/20 03:44:21;;;;;;;4.23;2.57;;;;;;;-145.14;100.00;70583.66;5021817;28;20197;-71
2023/10/20 03:46:51;;;;;;;4.43;2.53;;;;;;;-145.14;100.00;70583.66;5018097;28;20185;-71
2023/10/20 03:49:18;;;;;;;4.70;2.43;;;;;;;-145.14;100.00;70583.66;5010172;28;20463;-71
2023/10/20 03:51:49;;;;;;;4.27;2.20;;;;;;;-145.14;100.00;70583.66;5018384;28;20440;-71
2023/10/20 03:54:19;;;;;;;5.40;2.77;;;;;;;-145.14;100.00;70583.66;5018617;28;20804;-71
2023/10/20 03:56:45;;;;;;;4.10;2.50;;;;;;;-145.14;100.00;70583.66;5021418;28;20966;-72
2023/10/20 03:59:16;;;;;;;4.33;2.40;;;;;;;-145.14;100.00;70583.66;5019638;28;20501;-71
2023/10/20 04:01:42;;;;;;;4.50;2.20;;;;;;;-145.14;100.00;70583.66;5023027;28;20444;-71
2023/10/20 04:04:11;;;;;;;4.60;2.70;;;;;;;-145.14;100.00;70583.66;5020645;28;20454;-72
2023/10/20 04:06:37;;;;;;;3.47;1.93;;;;;;;-145.14;100.00;70583.66;5025709;28;20215;-72
2023/10/20 04:09:09;;;;;;;4.57;2.30;;;;;;;-145.14;100.00;70583.66;5023424;28;20533;-72
2023/10/20 04:11:35;;;;;;;5.37;3.00;;;;;;;-145.14;100.00;70583.66;5026224;28;20185;-71
2023/10/20 04:14:05;;;;;;;3.63;2.03;;;;;;;-145.14;100.00;70583.66;5022781;28;20439;-71
2023/10/20 04:16:33;;;;;;;5.30;2.10;;;;;;;-145.14;100.00;70583.66;5022371;28;20472;-71
2023/10/20 04:18:58;;;;;;;5.00;2.40;;;;;;;-145.14;100.00;70583.66;5024654;28;20454;-71
2023/10/20 04:21:25;;;;;;;3.67;2.07;;;;;;;-145.14;100.00;70583.66;5028013;28;20439;-71
2023/10/20 04:23:51;;;;;;;3.70;2.03;;;;;;;-145.14;100.00;70583.66;5019605;28;20180;-71
2023/10/20 04:26:23;;;;;;;4.90;1.93;;;;;;;-145.14;100.00;70583.66;5024042;28;20419;-71
2023/10/20 04:58:54;;;;;;;3.33;1.30;;;;;;;-145.14;100.00;70583.66;5011811;28;20472;-72
2023/10/20 05:04:10;;;;;;;3.20;1.20;;;;;;;-145.14;100.00;70583.66;5019370;28;20522;-72
2023/10/20 05:06:43;;;;;;;4.27;1.13;;;;;;;-145.14;100.00;70583.66;5017206;28;20427;-72
2023/10/20 05:09:12;;;;;;;3.40;1.47;;;;;;;-145.14;100.00;70583.66;5021809;28;20467;-71
2023/10/20 05:11:39;;;;;;;3.23;1.20;;;;;;;-145.14;100.00;70583.66;5022461;28;20446;-71
2023/10/20 05:14:04;;;;;;;4.30;1.43;;;;;;;-145.14;100.00;70583.66;5021151;28;20440;-72
2023/10/20 05:16:33;;;;;;;3.30;1.07;;;;;;;-145.14;100.00;70583.66;5019968;28;20467;-72
2023/10/20 05:19:00;;;;;;;4.40;1.47;;;;;;;-145.14;100.00;70583.66;5017796;28;20266;-72
2023/10/20 05:21:26;;;;;;;2.57;1.10;;;;;;;-145.14;100.00;70583.66;5004299;28;20448;-72
2023/10/20 05:23:51;;;;;;;3.73;1.73;;;;;;;-145.14;100.00;70583.66;5018160;28;20803;-71
2023/10/20 05:26:22;;;;;;;2.77;1.23;;;;;;;-145.14;100.00;70583.66;5022268;28;20673;-71
2023/10/20 05:29:08;;;;;;;4.17;1.37;;;;;;;-145.14;100.00;70583.66;5024677;28;20231;-72
2023/10/20 05:31:34;;;;;;;3.30;1.40;;;;;;;-145.14;100.00;70583.66;5020688;28;20434;-71
2023/10/20 05:33:59;;;;;;;3.10;1.23;;;;;;;-145.14;100.00;70583.66;5022118;28;20450;-72
2023/10/20 05:36:25;;;;;;;3.00;1.50;;;;;;;-145.14;100.00;70583.66;5019519;28;20479;-71
2023/10/20 05:38:50;;;;;;;3.40;1.40;;;;;;;-145.14;100.00;70583.66;5011194;28;20228;-72
2023/10/20 05:41:16;;;;;;;3.83;1.50;;;;;;;-145.14;100.00;70583.66;5020023;28;20193;-72
2023/10/20 05:43:41;;;;;;;3.70;1.50;;;;;;;-145.14;100.00;70583.66;5022126;28;20196;-71
2023/10/20 05:46:17;;;;;;;3.20;1.50;;;;;;;-145.14;100.00;70583.66;5027619;28;20658;-71
2023/10/20 05:48:44;;;;;;;3.30;1.50;;;;;;;-145.14;100.00;70583.66;5027840;28;20350;-71
2023/10/20 05:51:12;;;;;;;8.43;1.83;;;;;;;-145.14;100.00;70583.66;5021917;28;20442;-71
2023/10/20 05:53:37;;;;;;;2.97;1.50;;;;;;;-145.14;100.00;70583.66;5020704;28;20559;-71
2023/10/20 05:56:03;;;;;;;3.87;2.10;;;;;;;-145.14;100.00;70583.66;5019118;28;20925;-71
2023/10/20 05:58:33;;;;;;;3.47;1.40;;;;;;;-145.14;100.00;70583.66;5020278;28;20231;-72
2023/10/20 06:01:11;;;;;;;3.60;1.87;;;;;;;-145.14;100.00;70583.66;5030665;28;20661;-71
2023/10/20 06:03:40;;;;;;;3.07;1.60;;;;;;;-145.14;100.00;70583.66;5024281;28;20506;-71
2023/10/20 06:06:25;;;;;;;3.87;1.57;;;;;;;-145.14;100.00;70583.66;5020323;28;20458;-71
2023/10/20 06:08:51;;;;;;;4.00;1.80;;;;;;;-145.14;100.00;70583.66;5018917;28;20459;-71
2023/10/20 06:11:16;;;;;;;3.50;2.10;;;;;;;-145.14;100.00;70583.66;5022840;28;20184;-72
2023/10/20 06:13:42;;;;;;;4.47;2.13;;;;;;;-145.14;100.00;70583.66;5017467;28;20685;-72
2023/10/20 06:16:09;;;;;;;3.90;1.73;;;;;;;-145.14;100.00;70583.66;5005690;28;20589;-72
2023/10/20 06:18:36;;;;;;;6.73;2.20;;;;;;;-145.14;100.00;70583.66;5019849;28;20281;-72
2023/10/20 06:21:16;;;;;;;4.60;1.80;;;;;;;-145.14;100.00;70583.66;5018110;28;20943;-71
2023/10/20 06:23:44;;;;;;;3.80;1.80;;;;;;;-145.14;100.00;70583.66;5023445;28;20542;-72
2023/10/20 06:26:10;;;;;;;3.23;1.70;;;;;;;-145.14;100.00;70583.66;5020516;28;20770;-71
2023/10/20 06:28:35;;;;;;;4.07;1.57;;;;;;;-145.14;100.00;70583.66;5022569;28;20451;-72
2023/10/20 06:31:14;;;;;;;3.47;1.73;;;;;;;-145.14;100.00;70583.66;5020359;28;20295;-72
2023/10/20 06:33:43;;;;;;;3.70;1.60;;;;;;;-145.14;100.00;70583.66;5018553;28;20185;-72
2023/10/20 06:36:11;;;;;;;3.70;1.67;;;;;;;-145.14;100.00;70583.66;5025918;28;20498;-71
2023/10/20 06:38:45;;;;;;;3.10;1.50;;;;;;;-145.14;100.00;70583.66;5027307;28;20957;-72
2023/10/20 06:41:13;;;;;;;3.93;1.53;;;;;;;-145.14;100.00;70583.66;5026267;28;20443;-71
2023/10/20 06:43:42;;;;;;;4.20;1.33;;;;;;;-145.14;100.00;70583.66;5019792;28;20439;-72
2023/10/20 06:46:08;;;;;;;3.30;1.57;;;;;;;-145.14;100.00;70583.66;5022357;28;20485;-71
2023/10/20 06:48:33;;;;;;;2.90;1.40;;;;;;;-145.14;100.00;70583.66;5021703;28;20471;-71
2023/10/20 06:50:59;;;;;;;2.70;1.33;;;;;;;-145.14;100.00;70583.66;5026063;28;20192;-72
2023/10/20 06:53:25;;;;;;;3.03;1.27;;;;;;;-145.14;100.00;70583.66;5023094;28;20188;-71
2023/10/20 06:55:51;;;;;;;3.50;1.60;;;;;;;-145.14;100.00;70583.66;5022773;28;20220;-71
2023/10/20 06:58:17;;;;;;;3.30;1.17;;;;;;;-145.14;100.00;70583.66;5024385;28;20940;-72
2023/10/20 07:00:44;;;;;;;3.20;1.33;;;;;;;-145.14;100.00;70583.66;5022859;28;20188;-72
2023/10/20 07:03:10;;;;;;;5.20;1.33;;;;;;;-145.14;100.00;70583.66;5024267;28;20443;-72
2023/10/20 07:05:39;;;;;;;2.80;1.20;;;;;;;-145.14;100.00;70583.66;5023970;28;20443;-71
2023/10/20 07:08:05;;;;;;;2.20;0.90;;;;;;;-145.14;100.00;70583.66;5018724;28;20501;-72
2023/10/20 07:10:37;;;;;;;4.13;1.60;;;;;;;-145.14;100.00;70583.66;5018703;28;21085;-71
2023/10/20 07:13:07;;;;;;;3.03;1.50;;;;;;;-145.14;100.00;70583.66;5016775;28;20196;-71
2023/10/20 07:15:35;;;;;;;3.20;1.00;;;;;;;-145.14;100.00;70583.66;5017178;28;20604;-71
2023/10/20 07:18:05;;;;;;;2.83;1.03;;;;;;;-145.14;100.00;70583.66;5021784;28;20447;-72
2023/10/20 07:20:32;;;;;;;2.80;1.30;;;;;;;-145.14;100.00;70583.66;5026537;28;20963;-72
2023/10/20 07:22:58;;;;;;;3.37;1.40;;;;;;;-145.14;100.00;70583.66;5023782;28;20444;-72
2023/10/20 07:25:23;;;;;;;3.33;1.43;;;;;;;-145.14;100.00;70583.66;5009824;28;20447;-72
2023/10/20 07:27:49;;;;;;;3.67;1.60;;;;;;;-145.14;100.00;70583.66;5022653;28;20185;-73
2023/10/20 07:30:16;;;;;;;3.33;1.40;;;;;;;-145.14;100.00;70583.66;5024342;28;20200;-72
2023/10/20 07:32:43;;;;;;;3.30;1.50;;;;;;;-145.14;100.00;70583.66;5020886;28;20195;-72
2023/10/20 07:35:11;;;;;;;3.77;1.20;;;;;;;-145.14;100.00;70583.66;5022304;28;20474;-72
2023/10/20 07:37:37;;;;;;;3.23;1.20;;;;;;;-145.14;100.00;70583.66;5023024;28;20577;-72
2023/10/20 07:40:05;;;;;;;3.23;1.20;;;;;;;-145.14;100.00;70583.66;5024675;28;20491;-71
2023/10/20 07:42:31;;;;;;;3.03;1.20;;;;;;;-145.14;100.00;70583.66;5022923;28;21047;-71
2023/10/20 07:44:58;;;;;;;3.03;1.30;;;;;;;-145.14;100.00;70583.66;5024876;28;20550;-72
2023/10/20 07:47:25;;;;;;;5.33;1.50;;;;;;;-145.14;100.00;70583.66;5023887;28;20200;-72
2023/10/20 07:49:51;;;;;;;3.50;1.70;;;;;;;-145.14;100.00;70583.66;5018021;28;20462;-72
2023/10/20 07:52:19;;;;;;;2.90;1.40;;;;;;;-145.14;100.00;70583.66;5023388;28;20949;-72
2023/10/20 07:54:45;;;;;;;2.60;1.03;;;;;;;-145.14;100.00;70583.66;5019624;28;20464;-72
2023/10/20 07:57:13;;;;;;;2.87;1.10;;;;;;;-145.14;100.00;70583.66;5023909;28;20469;-72
2023/10/20 07:59:38;;;;;;;2.80;1.20;;;;;;;-145.14;100.00;70583.66;5022264;28;20526;-73
2023/10/20 08:02:05;;;;;;;2.83;1.10;;;;;;;-145.14;100.00;70583.66;5024412;28;20958;-73
2023/10/20 08:04:36;;;;;;;4.13;1.03;;;;;;;-145.14;100.00;70583.66;5025256;28;20221;-72
2023/10/20 08:07:02;;;;;;;2.73;0.90;;;;;;;-145.14;100.00;70583.66;5024238;28;20953;-73
2023/10/20 08:09:28;;;;;;;2.90;1.10;;;;;;;-145.14;100.00;70583.66;5017315;28;20512;-71
2023/10/20 08:11:56;;;;;;;2.57;1.10;;;;;;;-145.14;100.00;70583.66;5024052;28;20443;-72
2023/10/20 08:14:23;;;;;;;3.83;1.50;;;;;;;-145.14;100.00;70583.66;5023480;28;20195;-72
2023/10/20 08:16:49;;;;;;;2.37;0.90;;;;;;;-145.14;100.00;70583.66;5022643;28;20944;-73
2023/10/20 08:19:17;;;;;;;3.10;1.20;;;;;;;-145.14;100.00;70583.66;5019565;28;20458;-72
2023/10/20 08:21:43;;;;;;;4.90;1.23;;;;;;;-145.14;100.00;70583.66;5019191;28;20573;-72
2023/10/20 08:24:10;;;;;;;2.83;1.30;;;;;;;-145.14;100.00;70583.66;5031605;28;20493;-72
2023/10/20 08:26:36;;;;;;;6.40;1.50;;;;;;;-145.14;100.00;70583.66;5022129;28;20279;-72
2023/10/20 08:29:02;;;;;;;3.60;1.30;;;;;;;-145.14;100.00;70583.66;5021595;28;20495;-72
2023/10/20 08:31:36;;;;;;;3.33;1.50;;;;;;;-145.14;100.00;70583.66;5024529;28;20439;-73
2023/10/20 08:34:21;;;;;;;4.10;1.53;;;;;;;-145.14;100.00;70583.66;5020475;28;20442;-75
2023/10/20 08:37:29;;;;;;;3.07;1.13;;;;;;;-145.14;100.00;70583.66;5007701;28;20462;-74
2023/10/20 08:40:02;;;;;;;3.93;1.50;;;;;;;-145.14;100.00;70583.66;5016982;28;20474;-74
2023/10/20 08:43:21;;;;;;;3.60;1.63;;;;;;;-145.14;100.00;70583.66;5016121;28;21012;-74
2023/10/20 08:45:46;;;;;;;3.30;1.30;;;;;;;-145.14;100.00;70583.66;5017247;28;20451;-72
2023/10/20 08:48:27;;;;;;;4.33;1.60;;;;;;;-145.14;100.00;70583.66;5020393;28;20462;-73
2023/10/20 08:50:59;;;;;;;4.00;1.57;;;;;;;-145.14;100.00;70583.66;5022391;28;20705;-73
2023/10/20 08:53:33;;;;;;;3.20;1.40;;;;;;;-145.14;100.00;70583.66;5022717;28;20454;-74
2023/10/20 08:56:47;;;;;;;3.60;1.73;;;;;;;-145.14;100.00;70583.66;5022016;28;20486;-74
2023/10/20 08:59:13;;;;;;;3.37;1.53;;;;;;;-145.14;100.00;70583.66;4973249;28;20448;-74
2023/10/20 09:01:57;;;;;;;2.93;1.37;;;;;;;-145.14;100.00;70583.66;4977098;28;20488;-74
2023/10/20 09:05:06;;;;;;;4.40;1.70;;;;;;;-145.14;100.00;70583.66;5018179;28;20493;-74
2023/10/20 09:08:08;;;;;;;2.73;1.20;;;;;;;-145.14;100.00;70583.66;5017246;28;20995;-74
2023/10/20 09:10:56;;;;;;;3.10;1.40;;;;;;;-145.14;100.00;70583.66;4983676;28;20426;-74
2023/10/20 09:14:00;;;;;;;3.93;1.60;;;;;;;-145.14;100.00;70583.66;4985097;28;20467;-74
2023/10/20 09:16:30;;;;;;;4.17;1.27;;;;;;;-145.14;100.00;70583.66;4969872;28;20486;-74
2023/10/20 09:18:57;;;;;;;5.40;1.37;;;;;;;-145.14;100.00;70583.66;4992490;23;21343;-68
2023/10/20 09:21:24;;;;;;;3.30;1.13;;;;;;;-145.14;100.00;70583.66;4982592;28;20490;-68
2023/10/20 09:24:00;;;;;;;3.37;1.40;;;;;;;-145.14;100.00;70583.66;4983791;28;20174;-68
2023/10/20 09:26:28;;;;;;;4.50;1.40;;;;;;;-145.14;100.00;70583.66;4984555;28;20547;-68
2023/10/20 09:28:56;;;;;;;3.00;1.20;;;;;;;-145.14;100.00;70583.66;4984575;28;20460;-69
2023/10/20 09:31:22;;;;;;;3.50;1.30;;;;;;;-145.14;100.00;70583.66;4983247;28;20441;-69
2023/10/20 09:33:48;;;;;;;2.50;1.20;;;;;;;-145.14;100.00;70583.66;4984239;28;20472;-68
2023/10/20 09:36:14;;;;;;;3.13;1.20;;;;;;;-145.14;100.00;70583.66;4993999;28;20905;-68
2023/10/20 09:38:42;;;;;;;3.20;1.70;;;;;;;-145.14;100.00;70583.66;4982742;28;20531;-68
2023/10/20 09:41:13;;;;;;;3.37;1.10;;;;;;;-145.14;100.00;70583.66;4983650;28;21571;-68
2023/10/20 09:43:52;;;;;;;3.33;1.60;;;;;;;-145.14;100.00;70583.66;4984462;28;21018;-68
2023/10/20 09:46:55;;;;;;;3.67;1.63;;;;;;;-145.14;100.00;70583.66;4984319;28;20441;-69
2023/10/20 09:49:35;;;;;;;3.00;1.27;;;;;;;-145.14;100.00;70583.66;5088194;23;20531;-70
2023/10/20 09:52:00;;;;;;;2.70;1.30;;;;;;;-145.14;100.00;70583.66;4978664;28;20453;-70
2023/10/20 09:54:29;;;;;;;3.07;1.27;;;;;;;-145.14;100.00;70583.66;4977551;28;20440;-71
2023/10/20 09:56:56;;;;;;;2.53;1.20;;;;;;;-145.14;100.00;70583.66;4978970;28;20197;-69
2023/10/20 09:59:27;;;;;;;2.83;1.17;;;;;;;-145.14;100.00;70583.66;4974595;28;20464;-68
2023/10/20 10:01:53;;;;;;;3.30;1.50;;;;;;;-145.14;100.00;70583.66;4966153;28;20453;-69
2023/10/20 10:04:29;;;;;;;3.13;1.07;;;;;;;-145.14;100.00;70583.66;4970527;28;20440;-70
2023/10/20 10:06:58;;;;;;;2.83;1.20;;;;;;;-145.14;100.00;70583.66;4974776;28;20437;-70
2023/10/20 10:09:43;;;;;;;2.80;1.30;;;;;;;-145.14;100.00;70583.66;4968862;28;20461;-70
2023/10/20 10:12:10;;;;;;;2.70;1.00;;;;;;;-145.14;100.00;70583.66;4982177;28;21032;-70
2023/10/20 10:14:37;;;;;;;2.60;1.10;;;;;;;-145.14;100.00;70583.66;4974790;28;20473;-69
2023/10/20 10:17:08;;;;;;;3.43;1.30;;;;;;;-145.14;100.00;70583.66;4982231;28;20442;-70
2023/10/20 10:19:34;;;;;;;2.70;1.00;;;;;;;-145.14;100.00;70583.66;4978317;28;20469;-69
2023/10/20 10:22:02;;;;;;;2.83;1.23;;;;;;;-145.14;100.00;70583.66;4966484;28;22374;-70
2023/10/20 10:24:31;;;;;;;2.77;1.30;;;;;;;-145.14;100.00;70583.66;4968324;28;20903;-69
2023/10/20 10:27:06;;;;;;;2.80;1.30;;;;;;;-145.14;100.00;70583.66;4978103;28;20463;-70
2023/10/20 10:29:53;;;;;;;3.10;1.40;;;;;;;-145.14;100.00;70583.66;4974813;28;20460;-70
2023/10/20 10:32:20;;;;;;;2.57;1.10;;;;;;;-145.14;100.00;70583.66;4975412;28;20447;-70
2023/10/20 10:34:48;;;;;;;3.10;1.40;;;;;;;-145.14;100.00;70583.66;4979458;28;20909;-70
2023/10/20 10:37:16;;;;;;;3.13;1.10;;;;;;;-145.14;100.00;70583.66;4973942;28;20599;-70
2023/10/20 10:39:42;;;;;;;2.80;1.40;;;;;;;-145.14;100.00;70583.66;4974371;28;20556;-71
2023/10/20 10:42:07;;;;;;;2.50;1.03;;;;;;;-145.14;100.00;70583.66;4972378;28;20532;-70
2023/10/20 10:44:34;;;;;;;3.60;1.40;;;;;;;-145.14;100.00;70583.66;4977827;28;20209;-70
2023/10/20 10:47:04;;;;;;;3.33;1.23;;;;;;;-145.14;100.00;70583.66;4974616;28;20187;-70
2023/10/20 10:49:31;;;;;;;2.70;1.20;;;;;;;-145.14;100.00;70583.66;4977320;28;20476;-70
2023/10/20 10:51:57;;;;;;;2.80;1.17;;;;;;;-145.14;100.00;70583.66;4974760;28;20457;-70
2023/10/20 10:54:24;;;;;;;2.50;0.97;;;;;;;-145.14;100.00;70583.66;4980344;28;20447;-70
2023/10/20 10:56:49;;;;;;;2.73;1.30;;;;;;;-145.14;100.00;70583.66;4974637;28;20216;-70
2023/10/20 10:59:15;;;;;;;4.03;1.30;;;;;;;-145.14;100.00;70583.66;4969571;28;20468;-70
2023/10/20 11:01:41;;;;;;;3.17;1.00;;;;;;;-145.14;100.00;70583.66;4976283;28;20202;-69
2023/10/20 11:04:11;;;;;;;2.37;0.93;;;;;;;-145.14;100.00;70583.66;4975460;28;20189;-70
2023/10/20 11:06:38;;;;;;;2.50;1.10;;;;;;;-145.14;100.00;70583.66;4973698;28;20437;-70
2023/10/20 11:09:19;;;;;;;2.57;1.10;;;;;;;-145.14;100.00;70583.66;4973809;28;20523;-69
2023/10/20 11:11:47;;;;;;;3.17;1.20;;;;;;;-145.14;100.00;70583.66;4975099;28;20441;-70
2023/10/20 11:14:17;;;;;;;2.63;0.97;;;;;;;-145.14;100.00;70583.66;4974371;28;20505;-70
2023/10/20 11:16:42;;;;;;;2.60;1.07;;;;;;;-145.14;100.00;70583.66;4973311;28;20469;-70
2023/10/20 11:19:12;;;;;;;3.17;1.37;;;;;;;-145.14;100.00;70583.66;4974729;28;20463;-70
2023/10/20 11:21:43;;;;;;;4.80;1.37;;;;;;;-145.14;100.00;70583.66;4976695;28;20218;-70
2023/10/20 11:24:09;;;;;;;2.50;1.00;;;;;;;-145.14;100.00;70583.66;4977959;28;20444;-69
2023/10/20 11:26:35;;;;;;;3.20;1.57;;;;;;;-145.14;100.00;70583.66;4978174;28;20438;-70
2023/10/20 11:29:06;;;;;;;2.70;0.97;;;;;;;-145.14;100.00;70583.66;4979825;28;20214;-70
2023/10/20 11:31:31;;;;;;;2.60;1.13;;;;;;;-145.14;100.00;70583.66;4980451;28;20440;-70
2023/10/20 11:33:58;;;;;;;2.50;0.90;;;;;;;-145.14;100.00;70583.66;4978947;28;20432;-70
2023/10/20 11:36:23;;;;;;;3.30;1.20;;;;;;;-145.14;100.00;70583.66;4976375;28;20210;-70
2023/10/20 11:38:49;;;;;;;3.00;1.30;;;;;;;-145.14;100.00;70583.66;4979415;28;20607;-70
2023/10/20 11:41:14;;;;;;;3.50;1.17;;;;;;;-145.14;100.00;70583.66;4982554;28;20244;-70
2023/10/20 11:43:40;;;;;;;2.27;0.90;;;;;;;-145.14;100.00;70583.66;4982142;28;20190;-70
2023/10/20 11:46:06;;;;;;;2.70;0.90;;;;;;;-145.14;100.00;70583.66;4977803;28;20186;-70
2023/10/20 11:48:32;;;;;;;3.73;1.33;;;;;;;-145.14;100.00;70583.66;4976689;28;20214;-70
2023/10/20 11:50:57;;;;;;;2.50;1.10;;;;;;;-145.14;100.00;70583.66;4977822;28;20479;-70